createdAt,value
2023-02-19T00:01:42.311Z,4.40
2023-02-19T00:04:20.169Z,4.00
2023-02-19T00:06:53.789Z,3.90
2023-02-19T00:09:27.556Z,4.00
2023-02-19T00:12:00.712Z,3.60
2023-02-19T00:14:34.417Z,4.30
2023-02-19T00:17:08.388Z,3.90
2023-02-19T00:19:42.063Z,3.90
2023-02-19T00:22:14.966Z,3.60
2023-02-19T00:24:49.321Z,4.00
2023-02-19T00:27:23.615Z,4.10
2023-02-19T00:29:57.538Z,3.90
2023-02-19T00:32:31.556Z,4.00
2023-02-19T00:35:07.226Z,3.70
2023-02-19T00:37:40.772Z,3.80
2023-02-19T00:40:14.359Z,3.60
2023-02-19T00:42:47.645Z,4.20
2023-02-19T00:45:22.525Z,3.50
2023-02-19T00:47:56.125Z,5.40
2023-02-19T00:50:30.000Z,5.50
2023-02-19T00:53:02.917Z,4.60
2023-02-19T00:55:36.172Z,4.60
2023-02-19T00:58:09.070Z,4.00
2023-02-19T01:00:41.951Z,2.90
2023-02-19T01:03:14.783Z,3.30
2023-02-19T01:05:48.318Z,3.40
2023-02-19T01:08:23.235Z,2.70
2023-02-19T01:10:56.698Z,3.10
2023-02-19T01:13:30.235Z,3.00
2023-02-19T01:16:14.668Z,3.00
2023-02-19T01:18:48.553Z,3.10
2023-02-19T01:21:29.226Z,3.00
2023-02-19T01:24:02.472Z,3.30
2023-02-19T01:26:36.096Z,2.90
2023-02-19T01:29:09.331Z,3.10
2023-02-19T01:31:43.176Z,3.10
2023-02-19T01:34:16.396Z,3.10
2023-02-19T01:36:49.354Z,3.10
2023-02-19T01:39:22.396Z,3.00
2023-02-19T01:41:55.788Z,3.30
2023-02-19T01:44:31.268Z,3.20
2023-02-19T01:47:04.706Z,3.80
2023-02-19T01:49:49.679Z,3.00
2023-02-19T01:52:32.503Z,3.50
2023-02-19T01:55:09.529Z,3.60
2023-02-19T01:57:46.884Z,3.30
2023-02-19T02:00:24.927Z,3.10
2023-02-19T02:03:02.499Z,3.20
2023-02-19T02:06:13.630Z,3.60
2023-02-19T02:09:05.689Z,3.40
2023-02-19T02:11:41.379Z,3.60
2023-02-19T02:14:15.717Z,3.00
2023-02-19T02:17:02.153Z,3.60
2023-02-19T02:19:44.383Z,3.20
2023-02-19T02:22:25.503Z,3.00
2023-02-19T02:25:21.832Z,2.90
2023-02-19T02:28:42.698Z,2.80
2023-02-19T02:31:28.228Z,3.10
2023-02-19T02:34:29.401Z,3.30
2023-02-19T02:37:03.774Z,3.30
2023-02-19T02:39:39.340Z,3.60
2023-02-19T02:42:31.878Z,3.80
2023-02-19T02:45:40.270Z,4.00
2023-02-19T02:48:30.575Z,3.70
2023-02-19T02:51:25.690Z,3.60
2023-02-19T02:54:54.821Z,3.60
2023-02-19T02:57:28.052Z,3.60
2023-02-19T03:00:02.539Z,3.50
2023-02-19T03:02:36.444Z,3.30
2023-02-19T03:05:31.128Z,3.60
2023-02-19T03:08:39.562Z,3.80
2023-02-19T03:11:33.639Z,3.60
2023-02-19T03:14:37.886Z,3.60
2023-02-19T03:17:58.329Z,3.30
2023-02-19T03:20:36.692Z,3.20
2023-02-19T03:23:11.248Z,3.20
2023-02-19T03:26:03.210Z,3.50
2023-02-19T03:29:06.687Z,3.20
2023-02-19T03:31:42.142Z,3.10
2023-02-19T03:34:21.760Z,2.60
2023-02-19T03:37:08.981Z,2.70
2023-02-19T03:39:49.096Z,2.40
2023-02-19T03:42:56.283Z,1.80
2023-02-19T03:45:55.683Z,2.70
2023-02-19T03:48:51.738Z,2.40
2023-02-19T03:51:48.377Z,2.70
2023-02-19T03:54:31.079Z,2.80
2023-02-19T03:57:20.897Z,2.70
2023-02-19T04:00:20.291Z,2.90
2023-02-19T04:03:00.452Z,2.40
2023-02-19T04:05:39.534Z,2.80
2023-02-19T04:08:20.914Z,2.70
2023-02-19T04:11:00.735Z,2.40
2023-02-19T04:13:48.216Z,3.00
2023-02-19T04:16:26.563Z,2.20
2023-02-19T04:19:06.254Z,2.60
2023-02-19T04:21:41.856Z,2.40
2023-02-19T04:24:24.896Z,2.30
2023-02-19T04:26:59.353Z,3.30
2023-02-19T04:29:32.784Z,2.60
2023-02-19T04:32:06.112Z,2.30
2023-02-19T04:34:39.190Z,2.30
2023-02-19T04:37:13.120Z,2.00
2023-02-19T04:39:46.573Z,2.60
2023-02-19T04:42:20.554Z,2.40
2023-02-19T04:44:54.497Z,2.30
2023-02-19T04:47:28.058Z,2.50
2023-02-19T04:50:01.096Z,2.90
2023-02-19T04:52:34.182Z,2.70
2023-02-19T04:55:07.790Z,3.80
2023-02-19T04:57:41.369Z,3.60
2023-02-19T05:00:15.214Z,3.50
2023-02-19T05:02:48.530Z,3.10
2023-02-19T05:05:21.888Z,3.20
2023-02-19T05:07:56.296Z,3.10
2023-02-19T05:10:29.549Z,2.70
2023-02-19T05:13:02.504Z,2.30
2023-02-19T05:15:35.782Z,2.60
2023-02-19T05:18:08.894Z,2.90
2023-02-19T05:20:42.363Z,3.00
2023-02-19T05:23:15.458Z,2.50
2023-02-19T05:25:48.617Z,2.70
2023-02-19T05:28:30.321Z,2.90
2023-02-19T05:31:08.751Z,3.10
2023-02-19T05:33:43.599Z,3.30
2023-02-19T05:36:17.091Z,2.90
2023-02-19T05:38:53.473Z,2.90
2023-02-19T05:41:31.686Z,3.20
2023-02-19T05:44:04.925Z,4.10
2023-02-19T05:46:38.840Z,4.80
2023-02-19T05:49:12.507Z,5.60
2023-02-19T05:51:46.418Z,4.50
2023-02-19T05:54:19.510Z,3.90
2023-02-19T05:56:52.990Z,3.90
2023-02-19T05:59:29.212Z,3.60
2023-02-19T06:02:02.641Z,3.50
2023-02-19T06:04:35.892Z,3.20
2023-02-19T06:07:09.494Z,3.40
2023-02-19T06:09:42.429Z,3.60
2023-02-19T06:12:16.481Z,3.30
2023-02-19T06:14:49.715Z,3.40
2023-02-19T06:17:22.725Z,3.10
2023-02-19T06:19:56.102Z,2.70
2023-02-19T06:22:30.214Z,3.10
2023-02-19T06:25:03.974Z,3.50
2023-02-19T06:27:38.483Z,2.60
2023-02-19T06:30:12.641Z,3.50
2023-02-19T06:32:46.192Z,2.80
2023-02-19T06:35:19.883Z,3.20
2023-02-19T06:37:53.488Z,3.40
2023-02-19T06:40:27.821Z,2.90
2023-02-19T06:43:01.111Z,3.00
2023-02-19T06:45:34.370Z,3.00
2023-02-19T06:48:07.968Z,3.40
2023-02-19T06:50:41.109Z,3.30
2023-02-19T06:53:14.597Z,3.30
2023-02-19T06:55:58.552Z,3.60
2023-02-19T06:58:32.320Z,3.40
2023-02-19T07:01:05.566Z,3.50
2023-02-19T07:03:40.524Z,3.00
2023-02-19T07:06:13.942Z,3.50
2023-02-19T07:08:48.029Z,4.30
2023-02-19T07:11:21.320Z,4.10
2023-02-19T07:14:01.514Z,2.70
2023-02-19T07:16:35.264Z,3.80
2023-02-19T07:19:10.301Z,3.90
2023-02-19T07:21:43.848Z,2.90
2023-02-19T07:24:17.228Z,2.80
2023-02-19T07:26:49.908Z,2.90
2023-02-19T07:29:23.314Z,2.60
2023-02-19T07:31:56.367Z,3.20
2023-02-19T07:34:29.443Z,2.70
2023-02-19T07:37:02.512Z,3.50
2023-02-19T07:39:37.142Z,3.10
2023-02-19T07:42:09.996Z,2.70
2023-02-19T07:44:44.904Z,3.50
2023-02-19T07:47:18.410Z,3.30
2023-02-19T07:49:53.371Z,3.20
2023-02-19T07:52:26.446Z,4.00
2023-02-19T07:55:00.335Z,3.10
2023-02-19T07:57:33.298Z,3.00
2023-02-19T08:00:06.683Z,3.00
2023-02-19T08:03:04.210Z,2.90
2023-02-19T08:05:43.383Z,2.70
2023-02-19T08:08:17.770Z,3.10
2023-02-19T08:11:10.201Z,3.60
2023-02-19T08:13:43.210Z,2.50
2023-02-19T08:16:26.594Z,3.50
2023-02-19T08:19:05.092Z,3.40
2023-02-19T08:21:38.826Z,3.60
2023-02-19T08:24:11.840Z,3.90
2023-02-19T08:26:45.152Z,3.90
2023-02-19T08:29:18.505Z,2.60
2023-02-19T08:31:52.105Z,3.80
2023-02-19T08:34:25.457Z,3.60
2023-02-19T08:36:59.121Z,3.30
2023-02-19T08:39:32.164Z,3.60
2023-02-19T08:42:05.690Z,3.40
2023-02-19T08:44:39.176Z,3.70
2023-02-19T08:47:12.674Z,3.30
2023-02-19T08:49:45.941Z,3.20
2023-02-19T08:52:19.654Z,3.10
2023-02-19T08:54:53.175Z,2.80
2023-02-19T08:57:27.372Z,3.10
2023-02-19T09:00:00.843Z,2.90
2023-02-19T09:02:34.259Z,3.10
2023-02-19T09:05:07.951Z,3.20
2023-02-19T09:07:42.110Z,3.20
2023-02-19T09:10:16.540Z,3.10
2023-02-19T09:12:50.360Z,3.10
2023-02-19T09:15:24.000Z,2.90
2023-02-19T09:17:58.118Z,3.00
2023-02-19T09:20:32.060Z,3.40
2023-02-19T09:23:06.105Z,4.10
2023-02-19T09:25:39.334Z,3.50
2023-02-19T09:28:13.477Z,3.60
2023-02-19T09:30:46.749Z,3.70
2023-02-19T09:33:20.268Z,3.80
2023-02-19T09:35:53.688Z,3.90
2023-02-19T09:38:27.315Z,3.60
2023-02-19T09:41:10.830Z,3.20
2023-02-19T09:43:45.194Z,3.60
2023-02-19T09:46:35.342Z,3.00
2023-02-19T09:49:15.631Z,3.40
2023-02-19T09:51:56.777Z,3.40
2023-02-19T09:54:34.395Z,3.30
2023-02-19T09:57:11.602Z,3.30
2023-02-19T10:00:00.229Z,3.60
2023-02-19T10:02:33.557Z,3.80
2023-02-19T10:05:17.739Z,3.70
2023-02-19T10:07:53.485Z,3.70
2023-02-19T10:10:39.911Z,4.10
2023-02-19T10:13:23.534Z,3.90
2023-02-19T10:16:02.767Z,4.10
2023-02-19T10:18:43.694Z,3.40
2023-02-19T10:21:28.555Z,4.20
2023-02-19T10:24:05.191Z,4.10
2023-02-19T10:26:38.356Z,4.50
2023-02-19T10:29:13.274Z,4.20
2023-02-19T10:31:46.523Z,4.90
2023-02-19T10:34:26.131Z,4.70
2023-02-19T10:36:59.453Z,4.90
2023-02-19T10:39:47.236Z,4.70
2023-02-19T10:42:26.170Z,4.40
2023-02-19T10:45:04.828Z,5.20
2023-02-19T10:47:38.246Z,5.10
2023-02-19T10:50:23.750Z,4.90
2023-02-19T10:53:02.772Z,5.00
2023-02-19T10:55:38.275Z,5.30
2023-02-19T10:58:30.788Z,4.60
2023-02-19T11:03:55.642Z,4.40
2023-02-19T11:06:30.108Z,5.20
2023-02-19T11:09:04.571Z,5.00
2023-02-19T11:11:43.112Z,5.40
2023-02-19T11:14:22.185Z,5.80
2023-02-19T11:17:00.343Z,6.60
2023-02-19T11:19:43.568Z,6.30
2023-02-19T11:22:39.843Z,11.30
2023-02-19T11:25:18.389Z,15.20
2023-02-19T11:28:29.465Z,13.60
2023-02-19T11:31:21.333Z,18.40
2023-02-19T11:34:29.724Z,9.00
2023-02-19T11:37:17.988Z,7.70
2023-02-19T11:39:53.329Z,7.70
2023-02-19T11:42:58.828Z,5.80
2023-02-19T11:45:50.268Z,5.00
2023-02-19T11:48:48.900Z,5.30
2023-02-19T11:51:51.482Z,5.20
2023-02-19T11:54:53.304Z,6.20
2023-02-19T11:57:43.664Z,8.10
2023-02-19T12:00:28.870Z,9.20
2023-02-19T12:03:07.150Z,5.20
2023-02-19T12:05:47.431Z,4.60
2023-02-19T12:08:46.435Z,4.30
2023-02-19T12:11:24.709Z,4.90
2023-02-19T12:14:09.754Z,4.80
2023-02-19T12:16:58.232Z,4.30
2023-02-19T12:19:45.608Z,4.10
2023-02-19T12:22:35.506Z,4.00
2023-02-19T12:25:34.444Z,4.30
2023-02-19T12:28:25.337Z,4.30
2023-02-19T12:31:35.527Z,4.40
2023-02-19T12:34:35.650Z,4.30
2023-02-19T12:37:39.309Z,4.30
2023-02-19T12:40:14.786Z,4.40
2023-02-19T12:43:05.221Z,4.40
2023-02-19T12:45:50.020Z,4.50
2023-02-19T12:48:45.288Z,4.70
2023-02-19T12:51:38.278Z,4.90
2023-02-19T12:54:19.153Z,4.80
2023-02-19T12:57:03.033Z,4.60
2023-02-19T12:59:40.072Z,4.50
2023-02-19T13:02:41.401Z,4.30
2023-02-19T13:05:16.850Z,4.10
2023-02-19T13:08:13.095Z,3.50
2023-02-19T13:11:13.125Z,3.20
2023-02-19T13:14:00.389Z,3.80
2023-02-19T13:16:35.539Z,3.70
2023-02-19T13:19:09.586Z,3.60
2023-02-19T13:22:02.637Z,3.30
2023-02-19T13:24:41.902Z,3.70
2023-02-19T13:30:44.313Z,3.90
2023-02-19T13:33:35.503Z,4.90
2023-02-19T13:36:25.552Z,3.70
2023-02-19T13:39:01.369Z,3.70
2023-02-19T13:41:53.220Z,3.60
2023-02-19T13:44:31.888Z,3.60
2023-02-19T13:47:06.885Z,4.00
2023-02-19T13:49:52.986Z,3.10
2023-02-19T13:52:34.813Z,3.80
2023-02-19T13:55:53.034Z,3.90
2023-02-19T13:58:55.699Z,4.10
2023-02-19T14:04:43.710Z,3.60
2023-02-19T14:07:16.509Z,3.10
2023-02-19T14:09:50.075Z,3.80
2023-02-19T14:12:25.639Z,3.50
2023-02-19T14:14:59.536Z,4.10
2023-02-19T14:17:48.484Z,3.90
2023-02-19T14:20:39.412Z,3.80
2023-02-19T14:23:27.556Z,3.60
2023-02-19T14:26:05.204Z,3.40
2023-02-19T14:28:45.692Z,3.60
2023-02-19T14:31:33.829Z,4.20
2023-02-19T14:34:27.594Z,3.80
2023-02-19T14:37:07.381Z,4.40
2023-02-19T14:39:41.924Z,3.40
2023-02-19T14:42:28.334Z,4.20
2023-02-19T14:45:05.270Z,3.70
2023-02-19T14:47:40.060Z,4.20
2023-02-19T14:50:44.949Z,4.00
2023-02-19T14:53:21.322Z,3.70
2023-02-19T14:55:57.708Z,3.90
2023-02-19T14:58:37.918Z,4.90
2023-02-19T15:01:29.661Z,3.80
2023-02-19T15:04:03.358Z,3.20
2023-02-19T15:06:40.383Z,2.70
2023-02-19T15:09:16.564Z,2.80
2023-02-19T15:11:50.548Z,3.10
2023-02-19T15:14:29.375Z,3.10
2023-02-19T15:17:07.518Z,3.30
2023-02-19T15:19:45.367Z,3.50
2023-02-19T15:22:22.876Z,3.90
2023-02-19T15:24:56.995Z,3.70
2023-02-19T15:27:31.185Z,3.50
2023-02-19T15:30:04.991Z,3.80
2023-02-19T15:32:38.815Z,3.60
2023-02-19T15:35:24.605Z,3.60
2023-02-19T15:37:59.055Z,3.60
2023-02-19T15:40:34.374Z,3.40
2023-02-19T15:43:08.126Z,3.50
2023-02-19T15:45:47.351Z,3.40
2023-02-19T15:48:27.717Z,3.20
2023-02-19T15:51:12.043Z,3.10
2023-02-19T15:53:51.396Z,3.70
2023-02-19T15:56:36.152Z,3.70
2023-02-19T15:59:16.349Z,4.40
2023-02-19T16:01:50.771Z,4.10
2023-02-19T16:04:24.552Z,4.00
2023-02-19T16:07:03.271Z,5.30
2023-02-19T16:09:41.145Z,4.50
2023-02-19T16:12:26.422Z,4.50
2023-02-19T16:15:00.372Z,4.90
2023-02-19T16:17:33.911Z,4.80
2023-02-19T16:20:09.564Z,4.60
2023-02-19T16:22:45.044Z,5.10
2023-02-19T16:25:46.126Z,5.40
2023-02-19T16:28:30.247Z,5.40
2023-02-19T16:31:12.077Z,5.80
2023-02-19T16:33:49.175Z,5.40
2023-02-19T16:36:32.409Z,5.80
2023-02-19T16:39:13.000Z,6.70
2023-02-19T16:41:52.629Z,6.20
2023-02-19T16:44:36.534Z,6.50
2023-02-19T16:47:27.082Z,5.80
2023-02-19T16:50:02.215Z,6.10
2023-02-19T16:52:39.747Z,7.80
2023-02-19T16:55:16.918Z,11.50
2023-02-19T16:57:50.879Z,10.40
2023-02-19T17:00:33.186Z,12.90
2023-02-19T17:03:29.489Z,19.90
2023-02-19T17:06:03.028Z,19.70
2023-02-19T17:08:41.038Z,17.40
2023-02-19T17:11:19.498Z,17.20
2023-02-19T17:13:52.800Z,16.30
2023-02-19T17:16:32.482Z,14.80
2023-02-19T17:19:11.600Z,13.00
2023-02-19T17:21:45.711Z,10.80
2023-02-19T17:24:18.950Z,11.20
2023-02-19T17:26:55.451Z,7.30
2023-02-19T17:29:33.654Z,8.70
2023-02-19T17:32:07.679Z,8.90
2023-02-19T17:34:42.521Z,9.50
2023-02-19T17:37:15.944Z,10.10
2023-02-19T17:39:52.964Z,10.50
2023-02-19T17:42:27.102Z,11.50
2023-02-19T17:45:00.955Z,10.70
2023-02-19T17:47:34.765Z,11.00
2023-02-19T17:50:08.329Z,14.30
2023-02-19T17:52:41.617Z,12.60
2023-02-19T17:55:20.052Z,16.20
2023-02-19T17:57:54.523Z,15.90
2023-02-19T18:00:33.076Z,16.50
2023-02-19T18:03:08.545Z,17.20
2023-02-19T18:05:42.374Z,15.50
2023-02-19T18:08:16.650Z,16.40
2023-02-19T18:10:49.878Z,14.20
2023-02-19T18:13:23.672Z,13.20
2023-02-19T18:15:57.178Z,13.80
2023-02-19T18:18:30.979Z,14.60
2023-02-19T18:21:04.409Z,14.90
2023-02-19T18:23:38.791Z,16.00
2023-02-19T18:26:20.581Z,15.90
2023-02-19T18:28:55.186Z,16.40
2023-02-19T18:31:29.027Z,17.70
2023-02-19T18:34:02.322Z,16.20
2023-02-19T18:36:36.330Z,19.60
2023-02-19T18:39:10.520Z,20.90
2023-02-19T18:41:48.649Z,17.90
2023-02-19T18:44:23.774Z,19.50
2023-02-19T18:46:57.398Z,17.40
2023-02-19T18:49:32.950Z,16.50
2023-02-19T18:52:06.315Z,14.10
2023-02-19T18:54:39.531Z,14.40
2023-02-19T18:57:12.722Z,15.00
2023-02-19T18:59:46.733Z,14.40
2023-02-19T19:02:20.605Z,12.30
2023-02-19T19:04:57.120Z,12.70
2023-02-19T19:07:31.230Z,12.30
2023-02-19T19:10:05.593Z,11.40
2023-02-19T19:12:39.136Z,8.40
2023-02-19T19:15:12.956Z,12.80
2023-02-19T19:17:56.382Z,12.80
2023-02-19T19:20:30.194Z,14.20
2023-02-19T19:23:05.436Z,13.70
2023-02-19T19:25:39.444Z,13.30
2023-02-19T19:28:13.445Z,13.50
2023-02-19T19:30:47.142Z,11.50
2023-02-19T19:33:20.623Z,12.80
2023-02-19T19:35:53.964Z,11.80
2023-02-19T19:38:27.222Z,8.30
2023-02-19T19:41:00.864Z,5.10
2023-02-19T19:43:34.679Z,3.70
2023-02-19T19:46:09.563Z,3.20
2023-02-19T19:48:45.204Z,3.60
2023-02-19T19:51:18.854Z,4.70
2023-02-19T19:53:52.815Z,4.40
2023-02-19T19:56:25.810Z,3.70
2023-02-19T19:58:58.260Z,3.90
2023-02-19T20:01:31.378Z,3.00
2023-02-19T20:04:04.835Z,3.40
2023-02-19T20:06:38.059Z,3.90
2023-02-19T20:09:11.827Z,3.00
2023-02-19T20:11:49.134Z,5.60
2023-02-19T20:14:23.075Z,4.80
2023-02-19T20:16:57.174Z,4.90
2023-02-19T20:19:30.230Z,6.10
2023-02-19T20:22:03.371Z,6.80
2023-02-19T20:24:36.684Z,5.10
2023-02-19T20:27:10.629Z,4.90
2023-02-19T20:29:48.033Z,4.60
2023-02-19T20:32:21.754Z,3.90
2023-02-19T20:34:54.615Z,3.60
2023-02-19T20:37:27.506Z,2.10
2023-02-19T20:40:00.263Z,1.90
2023-02-19T20:42:33.417Z,1.70
2023-02-19T20:45:06.956Z,2.00
2023-02-19T20:47:41.929Z,1.90
2023-02-19T20:50:19.483Z,2.10
2023-02-19T20:52:53.762Z,1.40
2023-02-19T20:55:26.684Z,1.40
2023-02-19T20:57:59.909Z,1.70
2023-02-19T21:00:33.235Z,1.30
2023-02-19T21:03:09.571Z,1.40
2023-02-19T21:05:45.444Z,1.20
2023-02-19T21:08:19.437Z,1.50
2023-02-19T21:10:52.572Z,1.50
2023-02-19T21:13:26.082Z,1.30
2023-02-19T21:15:59.226Z,1.20
2023-02-19T21:18:32.566Z,1.50
2023-02-19T21:21:05.773Z,1.30
2023-02-19T21:23:39.695Z,1.10
2023-02-19T21:26:12.930Z,1.20
2023-02-19T21:28:46.841Z,1.70
2023-02-19T21:31:19.963Z,1.60
2023-02-19T21:33:53.272Z,1.50
2023-02-19T21:36:26.286Z,1.30
2023-02-19T21:38:59.467Z,1.40
2023-02-19T21:41:32.354Z,1.50
2023-02-19T21:44:05.538Z,2.00
2023-02-19T21:46:38.582Z,1.70
2023-02-19T21:49:12.410Z,2.30
2023-02-19T21:51:48.406Z,1.30
2023-02-19T21:54:26.341Z,2.00
2023-02-19T21:56:59.358Z,1.90
2023-02-19T21:59:32.255Z,2.40
2023-02-19T22:02:05.274Z,2.00
2023-02-19T22:04:38.496Z,2.00
2023-02-19T22:07:12.313Z,2.10
2023-02-19T22:09:45.576Z,1.70
2023-02-19T22:12:18.773Z,1.90
2023-02-19T22:14:53.267Z,2.50
2023-02-19T22:17:26.597Z,2.40
2023-02-19T22:19:59.517Z,2.00
2023-02-19T22:22:32.968Z,1.90
2023-02-19T22:25:06.981Z,2.20
2023-02-19T22:27:40.129Z,2.50
2023-02-19T22:30:14.388Z,2.30
2023-02-19T22:32:49.476Z,2.40
2023-02-19T22:35:22.605Z,2.10
2023-02-19T22:37:56.147Z,2.10
2023-02-19T22:40:29.850Z,2.50
2023-02-19T22:43:02.736Z,2.30
2023-02-19T22:45:36.125Z,2.30
2023-02-19T22:48:10.516Z,2.60
2023-02-19T22:50:45.434Z,2.50
2023-02-19T22:53:18.395Z,1.60
2023-02-19T22:55:51.414Z,3.10
2023-02-19T22:58:24.796Z,2.30
2023-02-19T23:00:58.452Z,2.30
2023-02-19T23:03:31.529Z,2.70
2023-02-19T23:06:07.758Z,2.80
2023-02-19T23:08:40.952Z,2.60
2023-02-19T23:11:15.520Z,2.50
2023-02-19T23:13:48.670Z,2.30
2023-02-19T23:16:22.224Z,2.40
2023-02-19T23:18:55.300Z,2.30
2023-02-19T23:21:30.372Z,2.30
2023-02-19T23:24:03.740Z,2.20
2023-02-19T23:26:36.933Z,2.10
2023-02-19T23:29:10.125Z,3.20
2023-02-19T23:31:43.321Z,2.40
2023-02-19T23:34:16.633Z,3.40
2023-02-19T23:36:53.042Z,3.40
2023-02-19T23:39:26.130Z,2.30
2023-02-19T23:42:00.115Z,2.60
2023-02-19T23:44:33.464Z,3.30
2023-02-19T23:47:06.196Z,2.70
2023-02-19T23:49:38.827Z,2.40
2023-02-19T23:52:12.290Z,2.80
2023-02-19T23:54:45.160Z,1.90
2023-02-19T23:57:18.229Z,2.50
2023-02-19T23:59:51.314Z,3.20
